sensor_id;sensor_type;location;lat;lon;timestamp;P1;durP1;ratioP1;P2;durP2;ratioP2
9972;SDS011;5027;53.560;10.062;2023-02-26T00:01:19;2.67;;;1.83;;
9972;SDS011;5027;53.560;10.062;2023-02-26T00:03:53;4.47;;;2.30;;
9972;SDS011;5027;53.560;10.062;2023-02-26T00:06:21;4.47;;;2.10;;
9972;SDS011;5027;53.560;10.062;2023-02-26T00:08:50;5.00;;;2.10;;
9972;SDS011;5027;53.560;10.062;2023-02-26T00:11:17;5.43;;;2.23;;
9972;SDS011;5027;53.560;10.062;2023-02-26T00:13:44;5.00;;;2.10;;
9972;SDS011;5027;53.560;10.062;2023-02-26T00:19:02;3.50;;;2.00;;
9972;SDS011;5027;53.560;10.062;2023-02-26T00:21:31;5.27;;;2.50;;
9972;SDS011;5027;53.560;10.062;2023-02-26T00:23:59;5.47;;;2.20;;
9972;SDS011;5027;53.560;10.062;2023-02-26T00:26:27;4.93;;;2.30;;
9972;SDS011;5027;53.560;10.062;2023-02-26T00:28:56;5.17;;;2.40;;
9972;SDS011;5027;53.560;10.062;2023-02-26T00:31:23;6.70;;;2.13;;
9972;SDS011;5027;53.560;10.062;2023-02-26T00:33:52;5.03;;;2.00;;
9972;SDS011;5027;53.560;10.062;2023-02-26T00:36:22;5.87;;;1.90;;
9972;SDS011;5027;53.560;10.062;2023-02-26T00:41:55;4.77;;;2.50;;
9972;SDS011;5027;53.560;10.062;2023-02-26T00:44:22;4.90;;;2.10;;
9972;SDS011;5027;53.560;10.062;2023-02-26T00:49:26;4.03;;;1.87;;
9972;SDS011;5027;53.560;10.062;2023-02-26T00:52:13;3.47;;;1.80;;
9972;SDS011;5027;53.560;10.062;2023-02-26T00:55:04;3.97;;;2.10;;
9972;SDS011;5027;53.560;10.062;2023-02-26T00:57:31;4.13;;;2.07;;
9972;SDS011;5027;53.560;10.062;2023-02-26T00:59:58;4.30;;;2.10;;
9972;SDS011;5027;53.560;10.062;2023-02-26T01:02:25;5.13;;;2.10;;
9972;SDS011;5027;53.560;10.062;2023-02-26T01:04:52;2.53;;;1.70;;
9972;SDS011;5027;53.560;10.062;2023-02-26T01:07:20;3.27;;;1.80;;
9972;SDS011;5027;53.560;10.062;2023-02-26T01:09:51;3.37;;;1.77;;
9972;SDS011;5027;53.560;10.062;2023-02-26T01:12:18;6.63;;;2.00;;
9972;SDS011;5027;53.560;10.062;2023-02-26T01:14:44;4.10;;;2.10;;
9972;SDS011;5027;53.560;10.062;2023-02-26T01:19:53;4.07;;;1.77;;
9972;SDS011;5027;53.560;10.062;2023-02-26T01:22:48;4.60;;;2.20;;
9972;SDS011;5027;53.560;10.062;2023-02-26T01:25:22;3.70;;;2.00;;
9972;SDS011;5027;53.560;10.062;2023-02-26T01:28:17;4.93;;;2.10;;
9972;SDS011;5027;53.560;10.062;2023-02-26T01:30:43;3.27;;;2.00;;
9972;SDS011;5027;53.560;10.062;2023-02-26T01:35:54;3.03;;;1.90;;
9972;SDS011;5027;53.560;10.062;2023-02-26T01:46:33;5.67;;;2.00;;
9972;SDS011;5027;53.560;10.062;2023-02-26T01:49:12;3.20;;;2.00;;
9972;SDS011;5027;53.560;10.062;2023-02-26T01:51:46;4.17;;;1.83;;
9972;SDS011;5027;53.560;10.062;2023-02-26T01:54:18;4.63;;;1.90;;
9972;SDS011;5027;53.560;10.062;2023-02-26T01:56:49;3.80;;;1.90;;
9972;SDS011;5027;53.560;10.062;2023-02-26T01:59:46;5.93;;;2.03;;
9972;SDS011;5027;53.560;10.062;2023-02-26T02:02:17;3.90;;;1.73;;
9972;SDS011;5027;53.560;10.062;2023-02-26T02:04:46;3.47;;;1.73;;
9972;SDS011;5027;53.560;10.062;2023-02-26T02:07:15;4.40;;;1.90;;
9972;SDS011;5027;53.560;10.062;2023-02-26T02:09:44;3.57;;;1.97;;
9972;SDS011;5027;53.560;10.062;2023-02-26T02:12:31;4.57;;;1.63;;
9972;SDS011;5027;53.560;10.062;2023-02-26T02:18:06;3.03;;;1.73;;
9972;SDS011;5027;53.560;10.062;2023-02-26T02:20:51;3.73;;;1.57;;
9972;SDS011;5027;53.560;10.062;2023-02-26T02:23:35;3.33;;;1.70;;
9972;SDS011;5027;53.560;10.062;2023-02-26T02:34:22;3.47;;;1.70;;
9972;SDS011;5027;53.560;10.062;2023-02-26T02:37:04;4.43;;;1.53;;
9972;SDS011;5027;53.560;10.062;2023-02-26T02:40:01;5.97;;;1.90;;
9972;SDS011;5027;53.560;10.062;2023-02-26T02:42:37;3.63;;;1.87;;
9972;SDS011;5027;53.560;10.062;2023-02-26T02:45:33;6.23;;;2.20;;
9972;SDS011;5027;53.560;10.062;2023-02-26T02:50:56;3.93;;;1.70;;
9972;SDS011;5027;53.560;10.062;2023-02-26T02:53:32;5.87;;;1.80;;
9972;SDS011;5027;53.560;10.062;2023-02-26T02:56:06;3.93;;;1.80;;
9972;SDS011;5027;53.560;10.062;2023-02-26T02:58:39;3.40;;;1.70;;
9972;SDS011;5027;53.560;10.062;2023-02-26T03:01:13;6.07;;;1.40;;
9972;SDS011;5027;53.560;10.062;2023-02-26T03:03:51;4.47;;;1.83;;
9972;SDS011;5027;53.560;10.062;2023-02-26T03:06:22;2.80;;;2.10;;
9972;SDS011;5027;53.560;10.062;2023-02-26T03:08:49;4.13;;;2.03;;
9972;SDS011;5027;53.560;10.062;2023-02-26T03:11:17;3.10;;;1.63;;
9972;SDS011;5027;53.560;10.062;2023-02-26T03:13:45;3.13;;;1.50;;
9972;SDS011;5027;53.560;10.062;2023-02-26T03:16:41;3.67;;;1.63;;
9972;SDS011;5027;53.560;10.062;2023-02-26T03:19:34;4.43;;;1.93;;
9972;SDS011;5027;53.560;10.062;2023-02-26T03:24:50;4.50;;;1.87;;
9972;SDS011;5027;53.560;10.062;2023-02-26T03:27:38;3.97;;;1.70;;
9972;SDS011;5027;53.560;10.062;2023-02-26T03:30:15;2.57;;;1.57;;
9972;SDS011;5027;53.560;10.062;2023-02-26T03:33:05;3.53;;;1.80;;
9972;SDS011;5027;53.560;10.062;2023-02-26T03:39:03;2.80;;;1.53;;
9972;SDS011;5027;53.560;10.062;2023-02-26T03:44:26;4.67;;;1.97;;
9972;SDS011;5027;53.560;10.062;2023-02-26T03:46:58;3.03;;;1.60;;
9972;SDS011;5027;53.560;10.062;2023-02-26T03:49:35;2.70;;;1.83;;
9972;SDS011;5027;53.560;10.062;2023-02-26T03:52:06;3.50;;;1.73;;
9972;SDS011;5027;53.560;10.062;2023-02-26T03:54:50;5.00;;;1.87;;
9972;SDS011;5027;53.560;10.062;2023-02-26T03:57:41;6.50;;;2.20;;
9972;SDS011;5027;53.560;10.062;2023-02-26T04:00:32;3.87;;;1.63;;
9972;SDS011;5027;53.560;10.062;2023-02-26T04:03:19;5.67;;;1.73;;
9972;SDS011;5027;53.560;10.062;2023-02-26T04:05:49;6.40;;;1.90;;
9972;SDS011;5027;53.560;10.062;2023-02-26T04:08:19;3.53;;;1.30;;
9972;SDS011;5027;53.560;10.062;2023-02-26T04:10:52;3.43;;;1.63;;
9972;SDS011;5027;53.560;10.062;2023-02-26T04:13:22;3.33;;;1.80;;
9972;SDS011;5027;53.560;10.062;2023-02-26T04:15:49;4.57;;;1.70;;
9972;SDS011;5027;53.560;10.062;2023-02-26T04:18:16;4.87;;;1.90;;
9972;SDS011;5027;53.560;10.062;2023-02-26T04:20:43;3.27;;;1.60;;
9972;SDS011;5027;53.560;10.062;2023-02-26T04:23:09;3.60;;;1.50;;
9972;SDS011;5027;53.560;10.062;2023-02-26T04:25:37;5.27;;;1.70;;
9972;SDS011;5027;53.560;10.062;2023-02-26T04:28:05;5.73;;;1.90;;
9972;SDS011;5027;53.560;10.062;2023-02-26T04:30:32;3.87;;;1.60;;
9972;SDS011;5027;53.560;10.062;2023-02-26T04:33:00;2.50;;;1.47;;
9972;SDS011;5027;53.560;10.062;2023-02-26T04:35:28;2.57;;;1.40;;
9972;SDS011;5027;53.560;10.062;2023-02-26T04:37:56;3.43;;;1.60;;
9972;SDS011;5027;53.560;10.062;2023-02-26T04:40:22;5.17;;;2.00;;
9972;SDS011;5027;53.560;10.062;2023-02-26T04:42:49;4.40;;;1.73;;
9972;SDS011;5027;53.560;10.062;2023-02-26T04:45:21;2.30;;;1.63;;
9972;SDS011;5027;53.560;10.062;2023-02-26T04:47:48;4.80;;;1.80;;
9972;SDS011;5027;53.560;10.062;2023-02-26T04:50:15;3.83;;;1.90;;
9972;SDS011;5027;53.560;10.062;2023-02-26T04:52:44;4.57;;;1.90;;
9972;SDS011;5027;53.560;10.062;2023-02-26T04:55:11;3.43;;;1.63;;
9972;SDS011;5027;53.560;10.062;2023-02-26T04:57:39;4.37;;;1.70;;
9972;SDS011;5027;53.560;10.062;2023-02-26T05:00:06;2.07;;;1.57;;
9972;SDS011;5027;53.560;10.062;2023-02-26T05:02:36;1.80;;;1.30;;
9972;SDS011;5027;53.560;10.062;2023-02-26T05:05:02;3.57;;;1.60;;
9972;SDS011;5027;53.560;10.062;2023-02-26T05:07:29;3.43;;;1.60;;
9972;SDS011;5027;53.560;10.062;2023-02-26T05:09:56;3.80;;;1.40;;
9972;SDS011;5027;53.560;10.062;2023-02-26T05:12:23;2.47;;;1.50;;
9972;SDS011;5027;53.560;10.062;2023-02-26T05:14:50;4.23;;;1.90;;
9972;SDS011;5027;53.560;10.062;2023-02-26T05:17:16;2.77;;;1.50;;
9972;SDS011;5027;53.560;10.062;2023-02-26T05:19:43;3.17;;;1.60;;
9972;SDS011;5027;53.560;10.062;2023-02-26T05:22:10;5.57;;;1.80;;
9972;SDS011;5027;53.560;10.062;2023-02-26T05:24:37;3.47;;;1.70;;
9972;SDS011;5027;53.560;10.062;2023-02-26T05:27:04;3.60;;;1.60;;
9972;SDS011;5027;53.560;10.062;2023-02-26T05:29:33;4.00;;;1.83;;
9972;SDS011;5027;53.560;10.062;2023-02-26T05:32:02;2.40;;;1.50;;
9972;SDS011;5027;53.560;10.062;2023-02-26T05:34:29;3.63;;;1.57;;
9972;SDS011;5027;53.560;10.062;2023-02-26T05:36:56;2.70;;;1.50;;
9972;SDS011;5027;53.560;10.062;2023-02-26T05:39:22;4.83;;;1.83;;
9972;SDS011;5027;53.560;10.062;2023-02-26T05:41:49;4.97;;;1.60;;
9972;SDS011;5027;53.560;10.062;2023-02-26T05:44:18;4.27;;;1.73;;
9972;SDS011;5027;53.560;10.062;2023-02-26T05:46:44;2.67;;;1.70;;
9972;SDS011;5027;53.560;10.062;2023-02-26T05:49:11;3.80;;;1.47;;
9972;SDS011;5027;53.560;10.062;2023-02-26T05:51:38;5.10;;;1.67;;
9972;SDS011;5027;53.560;10.062;2023-02-26T05:54:05;3.93;;;1.80;;
9972;SDS011;5027;53.560;10.062;2023-02-26T05:56:31;6.10;;;1.73;;
9972;SDS011;5027;53.560;10.062;2023-02-26T05:58:58;4.30;;;1.57;;
9972;SDS011;5027;53.560;10.062;2023-02-26T06:01:24;4.53;;;2.10;;
9972;SDS011;5027;53.560;10.062;2023-02-26T06:03:51;3.33;;;1.70;;
9972;SDS011;5027;53.560;10.062;2023-02-26T06:06:18;3.37;;;1.43;;
9972;SDS011;5027;53.560;10.062;2023-02-26T06:08:44;3.13;;;1.47;;
9972;SDS011;5027;53.560;10.062;2023-02-26T06:11:11;4.67;;;1.63;;
9972;SDS011;5027;53.560;10.062;2023-02-26T06:13:38;5.47;;;1.67;;
9972;SDS011;5027;53.560;10.062;2023-02-26T06:16:05;3.60;;;1.90;;
9972;SDS011;5027;53.560;10.062;2023-02-26T06:18:32;3.40;;;1.70;;
9972;SDS011;5027;53.560;10.062;2023-02-26T06:20:59;2.70;;;1.63;;
9972;SDS011;5027;53.560;10.062;2023-02-26T06:23:26;2.93;;;1.77;;
9972;SDS011;5027;53.560;10.062;2023-02-26T06:25:53;4.80;;;2.00;;
9972;SDS011;5027;53.560;10.062;2023-02-26T06:28:20;4.63;;;1.80;;
9972;SDS011;5027;53.560;10.062;2023-02-26T06:30:50;2.80;;;1.47;;
9972;SDS011;5027;53.560;10.062;2023-02-26T06:33:18;2.10;;;1.37;;
9972;SDS011;5027;53.560;10.062;2023-02-26T06:35:45;4.00;;;1.60;;
9972;SDS011;5027;53.560;10.062;2023-02-26T06:38:12;3.93;;;1.60;;
9972;SDS011;5027;53.560;10.062;2023-02-26T06:40:40;8.20;;;1.40;;
9972;SDS011;5027;53.560;10.062;2023-02-26T06:43:07;4.77;;;1.70;;
9972;SDS011;5027;53.560;10.062;2023-02-26T06:45:34;3.97;;;1.73;;
9972;SDS011;5027;53.560;10.062;2023-02-26T06:48:01;4.80;;;1.80;;
9972;SDS011;5027;53.560;10.062;2023-02-26T06:50:27;3.87;;;1.57;;
9972;SDS011;5027;53.560;10.062;2023-02-26T06:52:54;5.47;;;1.83;;
9972;SDS011;5027;53.560;10.062;2023-02-26T06:55:21;2.53;;;1.63;;
9972;SDS011;5027;53.560;10.062;2023-02-26T06:57:52;2.83;;;1.40;;
9972;SDS011;5027;53.560;10.062;2023-02-26T07:00:20;3.17;;;1.87;;
9972;SDS011;5027;53.560;10.062;2023-02-26T07:02:47;5.17;;;1.67;;
9972;SDS011;5027;53.560;10.062;2023-02-26T07:05:14;5.70;;;1.73;;
9972;SDS011;5027;53.560;10.062;2023-02-26T07:07:40;5.00;;;1.90;;
9972;SDS011;5027;53.560;10.062;2023-02-26T07:10:08;4.70;;;1.83;;
9972;SDS011;5027;53.560;10.062;2023-02-26T07:12:36;4.80;;;1.60;;
9972;SDS011;5027;53.560;10.062;2023-02-26T07:15:04;3.37;;;1.80;;
9972;SDS011;5027;53.560;10.062;2023-02-26T07:17:31;4.97;;;1.90;;
9972;SDS011;5027;53.560;10.062;2023-02-26T07:19:58;3.77;;;1.90;;
9972;SDS011;5027;53.560;10.062;2023-02-26T07:22:31;5.10;;;1.80;;
9972;SDS011;5027;53.560;10.062;2023-02-26T07:24:58;5.53;;;1.63;;
9972;SDS011;5027;53.560;10.062;2023-02-26T07:27:25;2.57;;;1.73;;
9972;SDS011;5027;53.560;10.062;2023-02-26T07:29:52;6.63;;;2.07;;
9972;SDS011;5027;53.560;10.062;2023-02-26T07:32:18;5.87;;;1.93;;
9972;SDS011;5027;53.560;10.062;2023-02-26T07:34:45;3.53;;;1.93;;
9972;SDS011;5027;53.560;10.062;2023-02-26T07:37:12;3.57;;;1.77;;
9972;SDS011;5027;53.560;10.062;2023-02-26T07:39:39;4.03;;;1.70;;
9972;SDS011;5027;53.560;10.062;2023-02-26T07:42:05;4.07;;;1.63;;
9972;SDS011;5027;53.560;10.062;2023-02-26T07:44:32;5.10;;;2.00;;
9972;SDS011;5027;53.560;10.062;2023-02-26T07:46:59;5.03;;;1.97;;
9972;SDS011;5027;53.560;10.062;2023-02-26T07:49:25;2.77;;;1.57;;
9972;SDS011;5027;53.560;10.062;2023-02-26T07:51:52;3.47;;;1.60;;
9972;SDS011;5027;53.560;10.062;2023-02-26T07:54:19;3.93;;;2.03;;
9972;SDS011;5027;53.560;10.062;2023-02-26T07:56:45;4.83;;;2.03;;
9972;SDS011;5027;53.560;10.062;2023-02-26T07:59:12;5.47;;;1.83;;
9972;SDS011;5027;53.560;10.062;2023-02-26T08:01:39;4.20;;;2.17;;
9972;SDS011;5027;53.560;10.062;2023-02-26T08:04:05;3.33;;;1.80;;
9972;SDS011;5027;53.560;10.062;2023-02-26T08:06:32;3.10;;;1.70;;
9972;SDS011;5027;53.560;10.062;2023-02-26T08:09:00;4.23;;;2.10;;
9972;SDS011;5027;53.560;10.062;2023-02-26T08:11:27;6.40;;;2.30;;
9972;SDS011;5027;53.560;10.062;2023-02-26T08:13:54;3.90;;;1.73;;
9972;SDS011;5027;53.560;10.062;2023-02-26T08:16:21;3.63;;;1.60;;
9972;SDS011;5027;53.560;10.062;2023-02-26T08:18:47;3.27;;;1.67;;
9972;SDS011;5027;53.560;10.062;2023-02-26T08:21:14;2.20;;;1.40;;
9972;SDS011;5027;53.560;10.062;2023-02-26T08:23:41;2.67;;;1.90;;
9972;SDS011;5027;53.560;10.062;2023-02-26T08:26:08;3.83;;;1.67;;
9972;SDS011;5027;53.560;10.062;2023-02-26T08:28:36;4.40;;;1.90;;
9972;SDS011;5027;53.560;10.062;2023-02-26T08:31:03;6.67;;;2.40;;
9972;SDS011;5027;53.560;10.062;2023-02-26T08:33:30;3.97;;;2.17;;
9972;SDS011;5027;53.560;10.062;2023-02-26T08:35:57;4.57;;;2.10;;
9972;SDS011;5027;53.560;10.062;2023-02-26T08:38:24;5.83;;;2.43;;
9972;SDS011;5027;53.560;10.062;2023-02-26T08:40:52;4.37;;;2.13;;
9972;SDS011;5027;53.560;10.062;2023-02-26T08:43:21;2.73;;;1.53;;
9972;SDS011;5027;53.560;10.062;2023-02-26T08:45:51;6.93;;;2.40;;
9972;SDS011;5027;53.560;10.062;2023-02-26T08:48:19;7.67;;;2.43;;
9972;SDS011;5027;53.560;10.062;2023-02-26T08:50:46;4.37;;;2.60;;
9972;SDS011;5027;53.560;10.062;2023-02-26T08:53:14;5.57;;;2.10;;
9972;SDS011;5027;53.560;10.062;2023-02-26T08:55:41;10.00;;;2.83;;
9972;SDS011;5027;53.560;10.062;2023-02-26T08:58:09;5.63;;;2.20;;
9972;SDS011;5027;53.560;10.062;2023-02-26T09:00:36;3.93;;;1.93;;
9972;SDS011;5027;53.560;10.062;2023-02-26T09:03:03;5.63;;;1.80;;
9972;SDS011;5027;53.560;10.062;2023-02-26T09:05:29;1.57;;;1.20;;
9972;SDS011;5027;53.560;10.062;2023-02-26T09:07:59;4.80;;;1.53;;
9972;SDS011;5027;53.560;10.062;2023-02-26T09:10:29;3.53;;;1.57;;
9972;SDS011;5027;53.560;10.062;2023-02-26T09:12:56;3.30;;;1.90;;
9972;SDS011;5027;53.560;10.062;2023-02-26T09:15:23;2.67;;;1.80;;
9972;SDS011;5027;53.560;10.062;2023-02-26T09:17:50;6.60;;;2.00;;
9972;SDS011;5027;53.560;10.062;2023-02-26T09:20:17;3.20;;;1.63;;
9972;SDS011;5027;53.560;10.062;2023-02-26T09:22:43;6.87;;;1.90;;
9972;SDS011;5027;53.560;10.062;2023-02-26T09:25:10;2.97;;;1.80;;
9972;SDS011;5027;53.560;10.062;2023-02-26T09:27:37;4.60;;;2.00;;
9972;SDS011;5027;53.560;10.062;2023-02-26T09:30:04;2.70;;;1.70;;
9972;SDS011;5027;53.560;10.062;2023-02-26T09:32:31;4.40;;;1.63;;
9972;SDS011;5027;53.560;10.062;2023-02-26T09:34:58;4.80;;;1.30;;
9972;SDS011;5027;53.560;10.062;2023-02-26T09:37:25;3.03;;;1.50;;
9972;SDS011;5027;53.560;10.062;2023-02-26T09:39:52;2.63;;;1.80;;
9972;SDS011;5027;53.560;10.062;2023-02-26T09:44:58;2.30;;;1.20;;
9972;SDS011;5027;53.560;10.062;2023-02-26T09:47:27;1.93;;;1.27;;
9972;SDS011;5027;53.560;10.062;2023-02-26T09:50:10;1.80;;;1.07;;
9972;SDS011;5027;53.560;10.062;2023-02-26T09:53:02;2.00;;;1.10;;
9972;SDS011;5027;53.560;10.062;2023-02-26T09:55:42;3.83;;;1.63;;
9972;SDS011;5027;53.560;10.062;2023-02-26T09:58:21;5.27;;;1.40;;
9972;SDS011;5027;53.560;10.062;2023-02-26T10:00:57;5.40;;;2.17;;
9972;SDS011;5027;53.560;10.062;2023-02-26T10:03:44;1.30;;;1.20;;
9972;SDS011;5027;53.560;10.062;2023-02-26T10:17:13;3.60;;;1.10;;
9972;SDS011;5027;53.560;10.062;2023-02-26T10:19:46;3.13;;;1.10;;
9972;SDS011;5027;53.560;10.062;2023-02-26T10:22:23;3.47;;;1.43;;
9972;SDS011;5027;53.560;10.062;2023-02-26T10:25:04;1.50;;;1.20;;
9972;SDS011;5027;53.560;10.062;2023-02-26T10:27:41;4.50;;;1.30;;
9972;SDS011;5027;53.560;10.062;2023-02-26T10:30:26;4.03;;;1.10;;
9972;SDS011;5027;53.560;10.062;2023-02-26T10:35:48;2.17;;;1.30;;
9972;SDS011;5027;53.560;10.062;2023-02-26T10:38:25;2.63;;;1.27;;
9972;SDS011;5027;53.560;10.062;2023-02-26T10:43:34;2.67;;;1.50;;
9972;SDS011;5027;53.560;10.062;2023-02-26T10:46:15;4.50;;;1.27;;
9972;SDS011;5027;53.560;10.062;2023-02-26T10:49:09;1.23;;;1.10;;
9972;SDS011;5027;53.560;10.062;2023-02-26T10:51:50;3.00;;;1.53;;
9972;SDS011;5027;53.560;10.062;2023-02-26T10:54:26;1.70;;;1.10;;
9972;SDS011;5027;53.560;10.062;2023-02-26T10:57:00;1.97;;;1.40;;
9972;SDS011;5027;53.560;10.062;2023-02-26T10:59:27;2.43;;;1.27;;
9972;SDS011;5027;53.560;10.062;2023-02-26T11:01:53;1.63;;;1.40;;
9972;SDS011;5027;53.560;10.062;2023-02-26T11:04:21;1.63;;;1.27;;
9972;SDS011;5027;53.560;10.062;2023-02-26T11:06:52;2.47;;;1.40;;
9972;SDS011;5027;53.560;10.062;2023-02-26T11:09:30;2.33;;;1.40;;
9972;SDS011;5027;53.560;10.062;2023-02-26T11:12:05;2.20;;;1.30;;
9972;SDS011;5027;53.560;10.062;2023-02-26T11:14:38;1.77;;;1.30;;
9972;SDS011;5027;53.560;10.062;2023-02-26T11:17:13;3.40;;;1.60;;
9972;SDS011;5027;53.560;10.062;2023-02-26T11:19:47;4.00;;;1.20;;
9972;SDS011;5027;53.560;10.062;2023-02-26T11:22:24;3.53;;;1.70;;
9972;SDS011;5027;53.560;10.062;2023-02-26T11:24:52;3.00;;;1.30;;
9972;SDS011;5027;53.560;10.062;2023-02-26T11:27:20;1.63;;;1.23;;
9972;SDS011;5027;53.560;10.062;2023-02-26T11:29:55;1.80;;;1.33;;
9972;SDS011;5027;53.560;10.062;2023-02-26T11:32:31;2.50;;;1.03;;
9972;SDS011;5027;53.560;10.062;2023-02-26T11:35:00;2.73;;;1.20;;
9972;SDS011;5027;53.560;10.062;2023-02-26T11:37:38;6.13;;;1.50;;
9972;SDS011;5027;53.560;10.062;2023-02-26T11:42:54;2.20;;;1.70;;
9972;SDS011;5027;53.560;10.062;2023-02-26T11:45:24;8.97;;;1.50;;
9972;SDS011;5027;53.560;10.062;2023-02-26T11:48:12;2.77;;;1.67;;
9972;SDS011;5027;53.560;10.062;2023-02-26T11:50:43;3.47;;;1.23;;
9972;SDS011;5027;53.560;10.062;2023-02-26T11:53:19;2.93;;;1.30;;
9972;SDS011;5027;53.560;10.062;2023-02-26T11:56:01;4.13;;;1.40;;
9972;SDS011;5027;53.560;10.062;2023-02-26T11:58:38;3.03;;;1.60;;
9972;SDS011;5027;53.560;10.062;2023-02-26T12:01:07;4.80;;;1.70;;
9972;SDS011;5027;53.560;10.062;2023-02-26T12:03:37;2.33;;;1.43;;
9972;SDS011;5027;53.560;10.062;2023-02-26T12:06:15;2.83;;;1.80;;
9972;SDS011;5027;53.560;10.062;2023-02-26T12:08:44;3.13;;;1.40;;
9972;SDS011;5027;53.560;10.062;2023-02-26T12:11:34;3.57;;;2.00;;
9972;SDS011;5027;53.560;10.062;2023-02-26T12:17:21;3.40;;;1.70;;
9972;SDS011;5027;53.560;10.062;2023-02-26T12:20:18;5.37;;;1.80;;
9972;SDS011;5027;53.560;10.062;2023-02-26T12:23:22;4.47;;;1.80;;
9972;SDS011;5027;53.560;10.062;2023-02-26T12:34:26;3.97;;;1.93;;
9972;SDS011;5027;53.560;10.062;2023-02-26T12:42:50;4.90;;;2.30;;
9972;SDS011;5027;53.560;10.062;2023-02-26T12:45:49;3.27;;;1.87;;
9972;SDS011;5027;53.560;10.062;2023-02-26T13:00:09;3.60;;;1.90;;
9972;SDS011;5027;53.560;10.062;2023-02-26T13:03:05;1.97;;;1.40;;
9972;SDS011;5027;53.560;10.062;2023-02-26T13:06:07;4.03;;;1.50;;
9972;SDS011;5027;53.560;10.062;2023-02-26T13:08:49;4.53;;;1.63;;
9972;SDS011;5027;53.560;10.062;2023-02-26T13:11:54;4.97;;;1.80;;
9972;SDS011;5027;53.560;10.062;2023-02-26T13:17:33;4.30;;;2.13;;
9972;SDS011;5027;53.560;10.062;2023-02-26T13:20:24;8.90;;;2.10;;
9972;SDS011;5027;53.560;10.062;2023-02-26T13:22:54;2.90;;;1.63;;
9972;SDS011;5027;53.560;10.062;2023-02-26T13:28:10;4.23;;;1.60;;
9972;SDS011;5027;53.560;10.062;2023-02-26T13:31:00;3.93;;;2.03;;
9972;SDS011;5027;53.560;10.062;2023-02-26T13:33:30;8.40;;;2.53;;
9972;SDS011;5027;53.560;10.062;2023-02-26T13:35:58;5.17;;;2.20;;
9972;SDS011;5027;53.560;10.062;2023-02-26T13:44:03;3.47;;;1.83;;
9972;SDS011;5027;53.560;10.062;2023-02-26T13:46:55;2.70;;;1.80;;
9972;SDS011;5027;53.560;10.062;2023-02-26T13:50:00;4.03;;;2.37;;
9972;SDS011;5027;53.560;10.062;2023-02-26T13:52:48;4.37;;;2.07;;
9972;SDS011;5027;53.560;10.062;2023-02-26T13:56:04;3.27;;;1.80;;
9972;SDS011;5027;53.560;10.062;2023-02-26T13:58:15;3.40;;;1.67;;
9972;SDS011;5027;53.560;10.062;2023-02-26T14:03:46;6.43;;;2.57;;
9972;SDS011;5027;53.560;10.062;2023-02-26T14:06:21;3.13;;;2.13;;
9972;SDS011;5027;53.560;10.062;2023-02-26T14:08:50;4.17;;;2.17;;
9972;SDS011;5027;53.560;10.062;2023-02-26T14:11:24;3.47;;;1.90;;
9972;SDS011;5027;53.560;10.062;2023-02-26T14:14:11;2.83;;;1.80;;
9972;SDS011;5027;53.560;10.062;2023-02-26T14:19:35;5.07;;;2.30;;
9972;SDS011;5027;53.560;10.062;2023-02-26T14:22:21;7.77;;;2.43;;
9972;SDS011;5027;53.560;10.062;2023-02-26T14:24:56;2.90;;;1.60;;
9972;SDS011;5027;53.560;10.062;2023-02-26T14:27:38;4.93;;;2.13;;
9972;SDS011;5027;53.560;10.062;2023-02-26T14:32:47;5.67;;;4.07;;
9972;SDS011;5027;53.560;10.062;2023-02-26T14:35:24;4.50;;;2.20;;
9972;SDS011;5027;53.560;10.062;2023-02-26T14:38:01;4.30;;;1.93;;
9972;SDS011;5027;53.560;10.062;2023-02-26T14:40:38;3.23;;;2.07;;
9972;SDS011;5027;53.560;10.062;2023-02-26T14:43:13;6.80;;;2.00;;
9972;SDS011;5027;53.560;10.062;2023-02-26T14:45:45;3.70;;;1.80;;
9972;SDS011;5027;53.560;10.062;2023-02-26T14:48:14;3.60;;;2.17;;
9972;SDS011;5027;53.560;10.062;2023-02-26T14:50:49;3.63;;;1.90;;
9972;SDS011;5027;53.560;10.062;2023-02-26T14:53:24;5.23;;;2.10;;
9972;SDS011;5027;53.560;10.062;2023-02-26T15:12:11;7.37;;;2.30;;
9972;SDS011;5027;53.560;10.062;2023-02-26T15:15:17;4.33;;;3.03;;
9972;SDS011;5027;53.560;10.062;2023-02-26T15:23:26;4.50;;;1.90;;
9972;SDS011;5027;53.560;10.062;2023-02-26T15:26:18;7.20;;;3.00;;
9972;SDS011;5027;53.560;10.062;2023-02-26T15:29:05;6.00;;;2.73;;
9972;SDS011;5027;53.560;10.062;2023-02-26T15:34:10;6.00;;;2.80;;
9972;SDS011;5027;53.560;10.062;2023-02-26T15:36:38;6.90;;;3.73;;
9972;SDS011;5027;53.560;10.062;2023-02-26T15:39:09;5.17;;;2.90;;
9972;SDS011;5027;53.560;10.062;2023-02-26T15:41:38;4.73;;;2.03;;
9972;SDS011;5027;53.560;10.062;2023-02-26T15:44:06;5.57;;;2.27;;
9972;SDS011;5027;53.560;10.062;2023-02-26T15:46:40;3.33;;;1.50;;
9972;SDS011;5027;53.560;10.062;2023-02-26T15:49:23;2.73;;;1.60;;
9972;SDS011;5027;53.560;10.062;2023-02-26T15:51:54;5.77;;;2.00;;
9972;SDS011;5027;53.560;10.062;2023-02-26T15:54:23;3.63;;;2.03;;
9972;SDS011;5027;53.560;10.062;2023-02-26T15:56:52;6.80;;;1.83;;
9972;SDS011;5027;53.560;10.062;2023-02-26T15:59:25;6.07;;;2.10;;
9972;SDS011;5027;53.560;10.062;2023-02-26T16:01:55;7.17;;;2.10;;
9972;SDS011;5027;53.560;10.062;2023-02-26T16:04:22;4.83;;;2.23;;
9972;SDS011;5027;53.560;10.062;2023-02-26T16:06:53;8.03;;;2.73;;
9972;SDS011;5027;53.560;10.062;2023-02-26T16:09:35;5.37;;;3.00;;
9972;SDS011;5027;53.560;10.062;2023-02-26T16:12:06;4.67;;;2.30;;
9972;SDS011;5027;53.560;10.062;2023-02-26T16:14:37;5.00;;;2.87;;
9972;SDS011;5027;53.560;10.062;2023-02-26T16:17:10;5.07;;;2.20;;
9972;SDS011;5027;53.560;10.062;2023-02-26T16:19:40;4.83;;;2.27;;
9972;SDS011;5027;53.560;10.062;2023-02-26T16:22:21;5.07;;;1.80;;
9972;SDS011;5027;53.560;10.062;2023-02-26T16:24:54;4.57;;;1.97;;
9972;SDS011;5027;53.560;10.062;2023-02-26T16:27:25;4.17;;;2.33;;
9972;SDS011;5027;53.560;10.062;2023-02-26T16:29:55;4.87;;;2.87;;
9972;SDS011;5027;53.560;10.062;2023-02-26T16:32:24;7.07;;;2.97;;
9972;SDS011;5027;53.560;10.062;2023-02-26T16:34:55;6.20;;;2.73;;
9972;SDS011;5027;53.560;10.062;2023-02-26T16:39:55;10.97;;;4.93;;
9972;SDS011;5027;53.560;10.062;2023-02-26T16:45:19;11.70;;;3.80;;
9972;SDS011;5027;53.560;10.062;2023-02-26T16:48:01;5.17;;;3.53;;
9972;SDS011;5027;53.560;10.062;2023-02-26T16:50:41;5.93;;;3.23;;
9972;SDS011;5027;53.560;10.062;2023-02-26T16:53:11;7.33;;;3.80;;
9972;SDS011;5027;53.560;10.062;2023-02-26T16:55:41;6.80;;;2.97;;
9972;SDS011;5027;53.560;10.062;2023-02-26T16:58:13;6.70;;;3.13;;
9972;SDS011;5027;53.560;10.062;2023-02-26T17:00:42;4.13;;;2.60;;
9972;SDS011;5027;53.560;10.062;2023-02-26T17:03:14;6.40;;;3.07;;
9972;SDS011;5027;53.560;10.062;2023-02-26T17:06:01;6.27;;;3.40;;
9972;SDS011;5027;53.560;10.062;2023-02-26T17:08:34;6.10;;;3.20;;
9972;SDS011;5027;53.560;10.062;2023-02-26T17:11:20;6.63;;;3.37;;
9972;SDS011;5027;53.560;10.062;2023-02-26T17:14:09;5.63;;;3.30;;
9972;SDS011;5027;53.560;10.062;2023-02-26T17:16:44;17.43;;;10.67;;
9972;SDS011;5027;53.560;10.062;2023-02-26T17:19:12;5.57;;;3.27;;
9972;SDS011;5027;53.560;10.062;2023-02-26T17:21:49;8.47;;;2.90;;
9972;SDS011;5027;53.560;10.062;2023-02-26T17:24:20;6.63;;;2.70;;
9972;SDS011;5027;53.560;10.062;2023-02-26T17:26:57;4.33;;;3.10;;
9972;SDS011;5027;53.560;10.062;2023-02-26T17:29:30;6.80;;;4.10;;
9972;SDS011;5027;53.560;10.062;2023-02-26T17:32:03;6.23;;;3.90;;
9972;SDS011;5027;53.560;10.062;2023-02-26T17:34:31;7.73;;;4.30;;
9972;SDS011;5027;53.560;10.062;2023-02-26T17:37:00;5.57;;;3.07;;
9972;SDS011;5027;53.560;10.062;2023-02-26T17:39:30;5.27;;;3.60;;
9972;SDS011;5027;53.560;10.062;2023-02-26T17:41:57;8.80;;;4.57;;
9972;SDS011;5027;53.560;10.062;2023-02-26T17:44:24;9.07;;;4.77;;
9972;SDS011;5027;53.560;10.062;2023-02-26T17:46:51;8.00;;;5.03;;
9972;SDS011;5027;53.560;10.062;2023-02-26T17:49:18;9.73;;;4.97;;
9972;SDS011;5027;53.560;10.062;2023-02-26T17:51:45;10.67;;;5.77;;
9972;SDS011;5027;53.560;10.062;2023-02-26T17:54:11;7.50;;;5.27;;
9972;SDS011;5027;53.560;10.062;2023-02-26T17:56:38;10.13;;;6.07;;
9972;SDS011;5027;53.560;10.062;2023-02-26T17:59:07;8.20;;;5.50;;